createdAt,value
2023-01-29T00:01:54.081Z,9.60
2023-01-29T00:04:21.344Z,9.90
2023-01-29T00:06:48.565Z,9.38
2023-01-29T00:09:15.736Z,9.10
2023-01-29T00:11:42.924Z,10.32
2023-01-29T00:14:10.186Z,10.25
2023-01-29T00:16:37.361Z,10.07
2023-01-29T00:19:04.633Z,10.43
2023-01-29T00:21:32.303Z,10.10
2023-01-29T00:24:00.010Z,9.43
2023-01-29T00:26:27.911Z,9.77
2023-01-29T00:28:56.995Z,9.80
2023-01-29T00:31:25.038Z,9.88
2023-01-29T00:33:52.594Z,10.33
2023-01-29T00:36:20.898Z,9.95
2023-01-29T00:38:54.589Z,10.93
2023-01-29T00:41:41.072Z,9.65
2023-01-29T00:44:27.129Z,8.88
2023-01-29T00:46:54.815Z,9.63
2023-01-29T00:49:22.101Z,9.77
2023-01-29T00:52:09.212Z,10.50
2023-01-29T00:54:36.752Z,9.27
2023-01-29T00:57:04.592Z,10.00
2023-01-29T00:59:31.783Z,9.80
2023-01-29T01:02:17.891Z,9.73
2023-01-29T01:04:45.059Z,9.70
2023-01-29T01:07:15.035Z,8.45
2023-01-29T01:10:00.947Z,9.15
2023-01-29T01:12:28.554Z,8.30
2023-01-29T01:14:55.848Z,8.40
2023-01-29T01:17:23.065Z,9.98
2023-01-29T01:19:50.295Z,8.70
2023-01-29T01:22:17.546Z,9.82
2023-01-29T01:24:44.910Z,8.20
2023-01-29T01:27:12.371Z,8.65
2023-01-29T01:29:39.525Z,8.55
2023-01-29T01:32:06.716Z,9.10
2023-01-29T01:34:33.965Z,9.10
2023-01-29T01:37:01.095Z,8.93
2023-01-29T01:39:28.379Z,8.48
2023-01-29T01:41:55.614Z,8.48
2023-01-29T01:44:41.491Z,8.45
2023-01-29T01:47:08.649Z,8.25
2023-01-29T01:49:35.781Z,8.27
2023-01-29T01:52:02.973Z,9.38
2023-01-29T01:54:32.147Z,9.82
2023-01-29T01:57:09.663Z,9.13
2023-01-29T01:59:38.266Z,9.20
2023-01-29T02:02:25.419Z,10.20
2023-01-29T02:05:11.528Z,10.13
2023-01-29T02:08:02.088Z,9.80
2023-01-29T02:10:31.520Z,9.05
2023-01-29T02:12:58.690Z,8.90
2023-01-29T02:15:25.792Z,9.13
2023-01-29T02:17:52.976Z,9.98
2023-01-29T02:20:27.639Z,9.70
2023-01-29T02:23:10.092Z,9.35
2023-01-29T02:25:56.108Z,9.75
2023-01-29T02:28:35.231Z,9.50
2023-01-29T02:31:22.756Z,9.80
2023-01-29T02:33:56.916Z,9.75
2023-01-29T02:36:44.312Z,9.43
2023-01-29T02:39:29.905Z,9.60
2023-01-29T02:42:00.325Z,9.40
2023-01-29T02:44:34.592Z,9.63
2023-01-29T02:47:04.883Z,9.88
2023-01-29T02:49:32.129Z,10.07
2023-01-29T02:52:11.670Z,10.00
2023-01-29T02:54:52.277Z,9.60
2023-01-29T02:57:22.399Z,10.05
2023-01-29T03:00:09.076Z,11.13
2023-01-29T03:02:39.394Z,10.70
2023-01-29T03:05:10.293Z,10.35
2023-01-29T03:07:44.491Z,9.67
2023-01-29T03:10:22.918Z,9.82
2023-01-29T03:13:02.483Z,10.23
2023-01-29T03:15:31.845Z,11.07
2023-01-29T03:18:03.139Z,11.18
2023-01-29T03:20:33.611Z,10.47
2023-01-29T03:23:03.168Z,11.38
2023-01-29T03:25:49.946Z,11.10
2023-01-29T03:28:37.399Z,11.32
2023-01-29T03:31:24.865Z,11.43
2023-01-29T03:33:53.576Z,11.33
2023-01-29T03:36:23.692Z,11.13
2023-01-29T03:38:50.920Z,11.15
2023-01-29T03:41:24.248Z,11.40
2023-01-29T03:44:20.773Z,10.38
2023-01-29T03:46:47.904Z,10.53
2023-01-29T03:49:41.421Z,10.48
2023-01-29T03:52:34.989Z,10.73
2023-01-29T03:55:14.377Z,10.50
2023-01-29T03:57:59.525Z,11.13
2023-01-29T04:00:32.745Z,11.00
2023-01-29T04:03:13.719Z,11.15
2023-01-29T04:05:44.309Z,11.65
2023-01-29T04:08:15.290Z,11.20
2023-01-29T04:10:43.679Z,10.65
2023-01-29T04:13:12.261Z,10.73
2023-01-29T04:15:51.423Z,9.82
2023-01-29T04:18:18.528Z,10.90
2023-01-29T04:20:45.711Z,11.02
2023-01-29T04:23:23.281Z,11.20
2023-01-29T04:26:10.728Z,10.60
2023-01-29T04:29:00.367Z,10.68
2023-01-29T04:31:33.231Z,11.02
2023-01-29T04:34:27.089Z,11.20
2023-01-29T04:36:57.336Z,10.13
2023-01-29T04:39:43.343Z,10.50
2023-01-29T04:42:15.153Z,11.02
2023-01-29T04:44:58.369Z,10.65
2023-01-29T04:47:30.552Z,10.65
2023-01-29T04:50:01.639Z,10.88
2023-01-29T04:52:29.311Z,10.60
2023-01-29T04:55:01.852Z,11.07
2023-01-29T04:57:28.968Z,11.25
2023-01-29T05:00:03.943Z,11.70
2023-01-29T05:02:32.800Z,11.23
2023-01-29T05:05:00.084Z,10.77
2023-01-29T05:07:28.946Z,10.00
2023-01-29T05:09:57.403Z,11.02
2023-01-29T05:12:26.357Z,11.48
2023-01-29T05:14:54.514Z,11.18
2023-01-29T05:17:21.773Z,11.13
2023-01-29T05:19:49.234Z,11.45
2023-01-29T05:22:18.595Z,11.25
2023-01-29T05:24:46.626Z,11.13
2023-01-29T05:27:36.871Z,10.65
2023-01-29T05:30:04.280Z,10.83
2023-01-29T05:32:31.496Z,11.32
2023-01-29T05:34:58.682Z,11.40
2023-01-29T05:37:25.863Z,11.93
2023-01-29T05:39:52.995Z,11.75
2023-01-29T05:42:20.150Z,10.90
2023-01-29T05:44:47.284Z,10.77
2023-01-29T05:47:14.597Z,12.13
2023-01-29T05:49:41.834Z,10.93
2023-01-29T05:52:09.043Z,11.23
2023-01-29T05:54:36.252Z,10.73
2023-01-29T05:57:03.435Z,11.25
2023-01-29T05:59:31.294Z,11.38
2023-01-29T06:01:59.050Z,11.93
2023-01-29T06:04:26.171Z,11.15
2023-01-29T06:06:53.347Z,11.70
2023-01-29T06:09:20.558Z,10.68
2023-01-29T06:11:47.690Z,11.00
2023-01-29T06:14:14.813Z,11.65
2023-01-29T06:16:41.915Z,11.15
2023-01-29T06:19:09.137Z,10.70
2023-01-29T06:21:36.336Z,9.15
2023-01-29T06:24:03.550Z,11.68
2023-01-29T06:26:30.772Z,10.95
2023-01-29T06:28:57.957Z,11.23
2023-01-29T06:31:37.796Z,10.60
2023-01-29T06:34:05.862Z,10.43
2023-01-29T06:36:33.029Z,10.98
2023-01-29T06:39:00.137Z,11.07
2023-01-29T06:41:27.328Z,11.63
2023-01-29T06:43:54.428Z,10.27
2023-01-29T06:46:21.666Z,10.38
2023-01-29T06:48:48.828Z,11.20
2023-01-29T06:51:15.923Z,8.98
2023-01-29T06:53:45.823Z,10.85
2023-01-29T06:56:13.484Z,11.10
2023-01-29T06:58:40.686Z,10.45
2023-01-29T07:01:08.951Z,10.93
2023-01-29T07:03:36.571Z,11.38
2023-01-29T07:06:04.177Z,11.13
2023-01-29T07:08:31.373Z,10.63
2023-01-29T07:11:02.222Z,10.55
2023-01-29T07:13:29.752Z,10.80
2023-01-29T07:16:00.812Z,11.20
2023-01-29T07:18:28.834Z,10.18
2023-01-29T07:20:56.539Z,9.87
2023-01-29T07:23:23.951Z,9.90
2023-01-29T07:25:51.832Z,11.00
2023-01-29T07:28:20.483Z,9.90
2023-01-29T07:30:47.735Z,11.57
2023-01-29T07:33:15.005Z,10.53
2023-01-29T07:35:43.307Z,9.77
2023-01-29T07:38:10.961Z,10.65
2023-01-29T07:40:38.286Z,10.15
2023-01-29T07:43:06.717Z,9.90
2023-01-29T07:45:34.872Z,8.73
2023-01-29T07:48:02.096Z,10.75
2023-01-29T07:50:29.255Z,9.23
2023-01-29T07:52:56.548Z,10.07
2023-01-29T07:55:24.097Z,10.15
2023-01-29T07:57:58.220Z,10.03
2023-01-29T08:00:25.384Z,10.00
2023-01-29T08:02:52.625Z,9.93
2023-01-29T08:05:20.008Z,9.15
2023-01-29T08:07:51.523Z,9.98
2023-01-29T08:10:28.426Z,9.73
2023-01-29T08:12:59.627Z,10.60
2023-01-29T08:15:27.257Z,11.02
2023-01-29T08:20:42.023Z,9.93
2023-01-29T08:23:14.948Z,8.10
2023-01-29T08:25:42.626Z,10.27
2023-01-29T08:28:09.938Z,11.15
2023-01-29T08:30:37.268Z,10.05
2023-01-29T08:33:04.730Z,10.63
2023-01-29T08:35:32.269Z,9.67
2023-01-29T08:38:00.666Z,10.48
2023-01-29T08:40:28.714Z,9.27
2023-01-29T08:43:02.075Z,10.35
2023-01-29T08:45:30.285Z,10.20
2023-01-29T08:47:57.511Z,9.67
2023-01-29T08:50:24.606Z,9.68
2023-01-29T08:52:51.833Z,9.32
2023-01-29T08:55:19.211Z,10.05
2023-01-29T08:57:46.516Z,10.55
2023-01-29T09:00:14.198Z,9.63
2023-01-29T09:02:41.762Z,7.65
2023-01-29T09:05:09.534Z,9.07
2023-01-29T09:07:37.060Z,9.43
2023-01-29T09:10:04.312Z,10.45
2023-01-29T09:12:31.431Z,10.33
2023-01-29T09:14:58.550Z,9.68
2023-01-29T09:17:25.692Z,10.85
2023-01-29T09:19:53.199Z,10.13
2023-01-29T09:22:20.731Z,10.07
2023-01-29T09:24:47.939Z,9.57
2023-01-29T09:27:15.031Z,10.10
2023-01-29T09:29:42.239Z,9.98
2023-01-29T09:32:09.400Z,8.90
2023-01-29T09:34:36.561Z,9.63
2023-01-29T09:37:03.709Z,10.13
2023-01-29T09:39:30.844Z,10.65
2023-01-29T09:42:07.619Z,9.70
2023-01-29T09:44:53.087Z,9.93
2023-01-29T09:47:21.076Z,9.18
2023-01-29T09:49:50.863Z,9.30
2023-01-29T09:52:28.937Z,10.18
2023-01-29T09:54:56.143Z,10.00
2023-01-29T09:57:28.635Z,9.38
2023-01-29T09:59:56.355Z,9.57
2023-01-29T10:02:37.188Z,9.20
2023-01-29T10:05:04.831Z,10.05
2023-01-29T10:07:37.928Z,10.23
2023-01-29T10:10:08.890Z,10.35
2023-01-29T10:12:59.749Z,10.35
2023-01-29T10:15:32.216Z,9.83
2023-01-29T10:18:05.601Z,9.73
2023-01-29T10:20:38.893Z,9.93
2023-01-29T10:23:15.254Z,9.80
2023-01-29T10:25:42.904Z,10.65
2023-01-29T10:28:21.409Z,10.30
2023-01-29T10:30:50.145Z,10.02
2023-01-29T10:33:19.257Z,10.95
2023-01-29T10:35:53.403Z,9.48
2023-01-29T10:38:28.957Z,10.45
2023-01-29T10:41:08.288Z,9.90
2023-01-29T10:43:39.736Z,11.15
2023-01-29T10:46:15.304Z,9.27
2023-01-29T10:48:50.792Z,10.52
2023-01-29T10:51:21.039Z,10.77
2023-01-29T10:53:58.696Z,10.93
2023-01-29T10:56:25.855Z,11.20
2023-01-29T10:58:55.241Z,11.40
2023-01-29T11:01:22.432Z,11.10
2023-01-29T11:03:57.275Z,11.57
2023-01-29T11:06:25.538Z,11.07
2023-01-29T11:09:11.436Z,11.38
2023-01-29T11:11:38.533Z,11.43
2023-01-29T11:14:08.928Z,11.32
2023-01-29T11:16:43.664Z,10.02
2023-01-29T11:19:11.426Z,13.10
2023-01-29T11:21:57.883Z,11.35
2023-01-29T11:24:25.714Z,10.93
2023-01-29T11:26:53.896Z,12.30
2023-01-29T11:29:30.264Z,12.18
2023-01-29T11:31:58.408Z,12.00
2023-01-29T11:34:27.658Z,11.75
2023-01-29T11:36:58.777Z,12.85
2023-01-29T11:39:27.460Z,12.00
2023-01-29T11:42:00.734Z,10.07
2023-01-29T11:44:27.958Z,11.83
2023-01-29T11:46:55.557Z,11.57
2023-01-29T11:49:24.050Z,11.13
2023-01-29T11:51:53.479Z,12.80
2023-01-29T11:54:20.884Z,11.43
2023-01-29T11:56:48.835Z,11.53
2023-01-29T11:59:22.172Z,12.02
2023-01-29T12:01:49.312Z,12.05
2023-01-29T12:04:19.554Z,11.73
2023-01-29T12:06:50.450Z,11.93
2023-01-29T12:09:19.345Z,11.27
2023-01-29T12:11:46.565Z,10.82
2023-01-29T12:14:33.372Z,11.63
2023-01-29T12:17:16.431Z,10.95
2023-01-29T12:19:47.598Z,12.35
2023-01-29T12:22:28.169Z,11.70
2023-01-29T12:24:57.875Z,10.57
2023-01-29T12:27:28.088Z,11.77
2023-01-29T12:30:14.167Z,13.15
2023-01-29T12:32:55.901Z,11.40
2023-01-29T12:35:28.881Z,13.10
2023-01-29T12:38:00.751Z,11.50
2023-01-29T12:40:30.313Z,12.80
2023-01-29T12:42:59.690Z,12.70
2023-01-29T12:45:27.879Z,13.38
2023-01-29T12:47:57.551Z,12.07
2023-01-29T12:50:27.720Z,12.48
2023-01-29T12:52:57.225Z,12.57
2023-01-29T12:55:34.775Z,12.60
2023-01-29T12:58:06.169Z,13.45
2023-01-29T13:00:34.993Z,12.40
2023-01-29T13:03:16.221Z,12.63
2023-01-29T13:05:46.096Z,12.77
2023-01-29T13:08:35.843Z,12.70
2023-01-29T13:11:05.458Z,12.35
2023-01-29T13:36:27.676Z,12.43
2023-01-29T13:39:15.061Z,11.40
2023-01-29T13:41:42.892Z,11.63
2023-01-29T13:44:21.920Z,11.80
2023-01-29T13:47:09.332Z,12.00
2023-01-29T13:49:36.739Z,11.43
2023-01-29T13:52:16.046Z,11.68
2023-01-29T13:54:50.883Z,11.27
2023-01-29T13:57:35.915Z,11.93
2023-01-29T14:00:03.268Z,12.40
2023-01-29T14:02:30.870Z,12.50
2023-01-29T14:05:17.253Z,11.15
2023-01-29T14:07:44.600Z,10.87
2023-01-29T14:10:16.744Z,12.48
2023-01-29T14:12:44.512Z,11.60
2023-01-29T14:15:14.535Z,11.40
2023-01-29T14:17:54.638Z,11.27
2023-01-29T14:20:25.700Z,10.93
2023-01-29T14:22:56.807Z,12.00
2023-01-29T14:25:28.870Z,10.75
2023-01-29T14:27:56.047Z,10.65
2023-01-29T14:30:23.501Z,10.57
2023-01-29T14:32:51.524Z,11.53
2023-01-29T14:35:26.091Z,10.63
2023-01-29T14:37:55.214Z,13.25
2023-01-29T14:40:26.926Z,11.43
2023-01-29T14:42:57.163Z,10.63
2023-01-29T14:45:24.387Z,11.47
2023-01-29T14:47:51.551Z,11.77
2023-01-29T14:50:34.657Z,11.75
2023-01-29T14:53:13.943Z,11.40
2023-01-29T14:55:56.089Z,11.63
2023-01-29T14:58:29.189Z,11.90
2023-01-29T15:00:58.149Z,11.27
2023-01-29T15:03:43.891Z,11.18
2023-01-29T15:06:16.209Z,9.57
2023-01-29T15:08:50.465Z,11.35
2023-01-29T15:11:34.242Z,10.90
2023-01-29T15:14:13.625Z,9.60
2023-01-29T15:16:49.920Z,11.75
2023-01-29T15:19:24.220Z,10.45
2023-01-29T15:22:04.407Z,9.63
2023-01-29T15:24:31.543Z,10.30
2023-01-29T15:26:58.754Z,11.25
2023-01-29T15:29:27.993Z,13.02
2023-01-29T15:31:56.299Z,9.07
2023-01-29T15:34:23.691Z,10.55
2023-01-29T15:36:51.180Z,8.93
2023-01-29T15:39:19.536Z,10.15
2023-01-29T15:41:46.684Z,10.25
2023-01-29T15:44:16.629Z,9.45
2023-01-29T15:46:45.146Z,9.88
2023-01-29T15:49:17.314Z,10.60
2023-01-29T15:51:44.542Z,8.68
2023-01-29T15:54:15.760Z,10.48
2023-01-29T15:56:50.459Z,8.90
2023-01-29T15:59:23.364Z,10.48
2023-01-29T16:01:50.682Z,9.87
2023-01-29T16:04:20.702Z,8.95
2023-01-29T16:06:48.178Z,10.18
2023-01-29T16:09:20.275Z,9.68
2023-01-29T16:11:47.897Z,9.80
2023-01-29T16:14:17.518Z,10.03
2023-01-29T16:16:48.572Z,10.65
2023-01-29T16:19:26.560Z,10.98
2023-01-29T16:21:59.813Z,10.30
2023-01-29T16:24:27.361Z,9.82
2023-01-29T16:27:00.141Z,9.53
2023-01-29T16:29:34.134Z,9.98
2023-01-29T16:32:02.498Z,10.77
2023-01-29T16:34:32.843Z,8.95
2023-01-29T16:37:01.601Z,11.35
2023-01-29T16:39:32.682Z,10.43
2023-01-29T16:42:19.963Z,8.73
2023-01-29T16:44:47.099Z,10.60
2023-01-29T16:47:15.417Z,10.07
2023-01-29T16:49:47.484Z,12.35
2023-01-29T16:52:24.206Z,9.03
2023-01-29T16:54:51.658Z,10.57
2023-01-29T16:57:20.507Z,11.77
2023-01-29T16:59:48.084Z,11.45
2023-01-29T17:02:27.292Z,11.35
2023-01-29T17:04:57.292Z,10.20
2023-01-29T17:07:24.928Z,10.63
2023-01-29T17:09:54.155Z,11.27
2023-01-29T17:12:23.386Z,11.70
2023-01-29T17:14:54.982Z,11.77
2023-01-29T17:17:22.232Z,10.27
2023-01-29T17:19:49.379Z,10.95
2023-01-29T17:22:16.500Z,9.85
2023-01-29T17:24:44.072Z,12.32
2023-01-29T17:27:19.446Z,12.90
2023-01-29T17:29:46.667Z,12.27
2023-01-29T17:32:13.916Z,12.02
2023-01-29T17:34:41.184Z,11.90
2023-01-29T17:37:12.283Z,10.68
2023-01-29T17:39:39.475Z,11.52
2023-01-29T17:42:06.715Z,12.37
2023-01-29T17:44:34.323Z,9.18
2023-01-29T17:47:01.549Z,11.93
2023-01-29T17:49:30.182Z,11.63
2023-01-29T17:51:57.689Z,11.27
2023-01-29T17:54:25.649Z,11.20
2023-01-29T17:56:53.484Z,10.10
2023-01-29T17:59:22.794Z,12.20
2023-01-29T18:01:50.620Z,10.93
2023-01-29T18:04:18.441Z,12.00
2023-01-29T18:06:47.561Z,11.97
2023-01-29T18:09:15.587Z,11.55
2023-01-29T18:11:44.035Z,12.02
2023-01-29T18:14:13.918Z,11.80
2023-01-29T18:16:42.567Z,11.73
2023-01-29T18:19:19.472Z,11.53
2023-01-29T18:21:46.644Z,10.90
2023-01-29T18:24:13.807Z,12.38
2023-01-29T18:26:40.967Z,11.02
2023-01-29T18:29:08.349Z,10.90
2023-01-29T18:31:35.747Z,11.73
2023-01-29T18:34:02.965Z,9.13
2023-01-29T18:36:30.236Z,11.05
2023-01-29T18:38:58.208Z,11.02
2023-01-29T18:41:25.349Z,11.63
2023-01-29T18:43:52.935Z,11.83
2023-01-29T18:46:20.801Z,13.48
2023-01-29T18:48:47.970Z,11.38
2023-01-29T18:51:15.160Z,10.70
2023-01-29T18:53:42.342Z,11.32
2023-01-29T18:56:10.404Z,11.90
2023-01-29T18:58:37.707Z,11.93
2023-01-29T19:01:09.294Z,11.02
2023-01-29T19:03:36.814Z,10.95
2023-01-29T19:06:05.120Z,10.20
2023-01-29T19:08:32.822Z,12.27
2023-01-29T19:11:02.437Z,11.95
2023-01-29T19:13:30.303Z,12.02
2023-01-29T19:15:57.637Z,12.05
2023-01-29T19:18:28.421Z,12.35
2023-01-29T19:20:55.967Z,11.13
2023-01-29T19:23:23.264Z,12.38
2023-01-29T19:25:50.687Z,11.18
2023-01-29T19:28:17.822Z,11.07
2023-01-29T19:30:44.996Z,10.20
2023-01-29T19:33:12.229Z,10.90
2023-01-29T19:35:39.451Z,11.63
2023-01-29T19:38:06.688Z,12.20
2023-01-29T19:40:33.792Z,11.77
2023-01-29T19:43:00.989Z,12.15
2023-01-29T19:45:37.203Z,11.90
2023-01-29T19:48:21.151Z,11.55
2023-01-29T19:50:52.454Z,11.82
2023-01-29T19:53:19.634Z,11.85
2023-01-29T19:55:46.920Z,12.73
2023-01-29T19:58:14.077Z,10.63
2023-01-29T20:00:41.309Z,10.40
2023-01-29T20:03:08.508Z,12.30
2023-01-29T20:05:37.486Z,11.75
2023-01-29T20:08:04.942Z,11.15
2023-01-29T20:10:32.179Z,11.87
2023-01-29T20:12:59.330Z,11.90
2023-01-29T20:15:26.481Z,11.65
2023-01-29T20:17:53.685Z,12.73
2023-01-29T20:20:20.937Z,13.02
2023-01-29T20:22:49.864Z,11.47
2023-01-29T20:25:17.637Z,12.73
2023-01-29T20:27:44.847Z,12.85
2023-01-29T20:30:12.304Z,12.23
2023-01-29T20:32:39.491Z,11.50
2023-01-29T20:35:06.888Z,13.07
2023-01-29T20:37:34.029Z,12.02
2023-01-29T20:40:01.185Z,12.50
2023-01-29T20:42:28.360Z,13.30
2023-01-29T20:44:55.689Z,13.05
2023-01-29T20:47:22.829Z,12.17
2023-01-29T20:49:50.406Z,12.38
2023-01-29T20:52:17.633Z,12.98
2023-01-29T20:54:44.859Z,11.90
2023-01-29T20:57:12.073Z,12.30
2023-01-29T20:59:39.576Z,12.83
2023-01-29T21:02:06.778Z,12.05
2023-01-29T21:04:33.943Z,13.60
2023-01-29T21:07:01.122Z,11.93
2023-01-29T21:09:28.273Z,12.35
2023-01-29T21:11:55.685Z,12.73
2023-01-29T21:14:22.800Z,12.63
2023-01-29T21:16:50.095Z,13.32
2023-01-29T21:19:17.329Z,12.65
2023-01-29T21:21:44.479Z,12.40
2023-01-29T21:24:12.927Z,11.60
2023-01-29T21:26:40.149Z,13.30
2023-01-29T21:29:07.664Z,12.35
2023-01-29T21:31:34.865Z,12.65
2023-01-29T21:34:03.324Z,12.98
2023-01-29T21:36:30.511Z,13.00
2023-01-29T21:38:57.625Z,12.05
2023-01-29T21:41:44.807Z,13.25
2023-01-29T21:44:12.542Z,11.60
2023-01-29T21:46:39.672Z,13.10
2023-01-29T21:49:06.877Z,12.47
2023-01-29T21:51:33.972Z,12.30
2023-01-29T21:54:02.660Z,13.73
2023-01-29T21:56:29.765Z,12.27
2023-01-29T21:59:00.717Z,12.98
2023-01-29T22:01:37.571Z,12.70
2023-01-29T22:04:08.173Z,13.02
2023-01-29T22:06:35.382Z,13.70
2023-01-29T22:09:02.586Z,13.32
2023-01-29T22:11:29.774Z,13.60
2023-01-29T22:13:56.948Z,13.27
2023-01-29T22:16:24.112Z,12.77
2023-01-29T22:18:51.265Z,13.93
2023-01-29T22:21:18.464Z,12.80
2023-01-29T22:23:49.393Z,12.85
2023-01-29T22:26:17.125Z,13.03
2023-01-29T22:28:44.406Z,13.65
2023-01-29T22:31:11.846Z,13.20
2023-01-29T22:33:39.065Z,11.73
2023-01-29T22:36:06.418Z,14.15
2023-01-29T22:38:33.665Z,13.77
2023-01-29T22:41:01.060Z,13.35
2023-01-29T22:43:29.222Z,12.85
2023-01-29T22:45:56.531Z,13.55
2023-01-29T22:48:23.813Z,13.15
2023-01-29T22:51:09.740Z,12.83
2023-01-29T22:53:40.999Z,12.43
2023-01-29T22:56:08.480Z,13.02
2023-01-29T22:58:35.745Z,11.07
2023-01-29T23:01:02.976Z,12.52
2023-01-29T23:03:30.123Z,10.40
2023-01-29T23:05:57.293Z,10.10
2023-01-29T23:08:24.433Z,11.45
2023-01-29T23:10:51.669Z,12.05
2023-01-29T23:13:18.867Z,10.85
2023-01-29T23:15:46.024Z,10.80
2023-01-29T23:18:13.259Z,10.77
2023-01-29T23:20:40.452Z,12.00
2023-01-29T23:23:07.621Z,11.52
2023-01-29T23:25:53.195Z,11.23
2023-01-29T23:28:20.355Z,11.23
2023-01-29T23:30:47.909Z,11.25
2023-01-29T23:33:15.348Z,10.52
2023-01-29T23:35:42.473Z,11.20
2023-01-29T23:38:09.583Z,10.80
2023-01-29T23:40:36.723Z,11.10
2023-01-29T23:43:03.925Z,11.55
2023-01-29T23:45:31.061Z,10.43
2023-01-29T23:47:58.186Z,10.90
2023-01-29T23:50:25.304Z,11.20
2023-01-29T23:52:52.415Z,10.93
2023-01-29T23:55:19.528Z,10.65
2023-01-29T23:57:46.628Z,11.35
